createdAt,value
2019-02-26T00:01:23.460Z,36.50
2019-02-26T00:03:52.392Z,33.67
2019-02-26T00:06:24.886Z,31.10
2019-02-26T00:08:54.110Z,31.65
2019-02-26T00:11:26.363Z,30.55
2019-02-26T00:13:56.767Z,27.67
2019-02-26T00:16:25.528Z,27.67
2019-02-26T00:18:56.225Z,28.73
2019-02-26T00:21:26.413Z,26.77
2019-02-26T00:23:56.728Z,29.82
2019-02-26T00:26:25.934Z,25.05
2019-02-26T00:28:56.757Z,25.92
2019-02-26T00:31:28.156Z,23.75
2019-02-26T00:33:57.282Z,26.23
2019-02-26T00:36:27.187Z,25.40
2019-02-26T00:38:58.450Z,26.93
2019-02-26T00:41:29.062Z,25.52
2019-02-26T00:43:59.932Z,24.32
2019-02-26T00:46:32.439Z,26.27
2019-02-26T00:49:03.026Z,27.30
2019-02-26T00:51:32.309Z,25.02
2019-02-26T00:54:02.006Z,25.27
2019-02-26T00:56:34.048Z,20.48
2019-02-26T00:59:03.462Z,28.38
2019-02-26T01:01:32.686Z,28.85
2019-02-26T01:04:01.933Z,28.40
2019-02-26T01:06:33.434Z,28.12
2019-02-26T01:09:04.129Z,27.48
2019-02-26T01:11:33.102Z,27.80
2019-02-26T01:14:02.367Z,26.15
2019-02-26T01:16:31.602Z,27.10
2019-02-26T01:19:00.821Z,29.25
2019-02-26T01:21:31.153Z,29.25
2019-02-26T01:24:01.733Z,32.38
2019-02-26T01:26:31.997Z,31.52
2019-02-26T01:29:01.281Z,32.33
2019-02-26T01:31:32.095Z,30.60
2019-02-26T01:34:01.451Z,31.80
2019-02-26T01:36:30.686Z,33.40
2019-02-26T01:38:59.960Z,30.35
2019-02-26T01:41:29.195Z,31.93
2019-02-26T01:43:58.424Z,33.83
2019-02-26T01:46:27.670Z,34.70
2019-02-26T01:48:57.558Z,33.90
2019-02-26T01:51:28.631Z,34.30
2019-02-26T01:53:57.972Z,33.33
2019-02-26T01:56:27.219Z,36.48
2019-02-26T01:58:59.327Z,36.35
2019-02-26T02:01:27.395Z,34.50
2019-02-26T02:03:56.599Z,34.78
2019-02-26T02:06:25.848Z,33.20
2019-02-26T02:08:55.802Z,34.08
2019-02-26T02:11:28.196Z,33.30
2019-02-26T02:13:55.968Z,32.15
2019-02-26T02:16:28.001Z,36.05
2019-02-26T02:18:58.172Z,35.13
2019-02-26T02:21:30.445Z,34.18
2019-02-26T02:23:58.101Z,38.92
2019-02-26T02:26:27.359Z,35.73
2019-02-26T02:28:56.593Z,36.95
2019-02-26T02:31:30.319Z,36.93
2019-02-26T02:33:56.775Z,33.60
2019-02-26T02:36:26.574Z,31.70
2019-02-26T02:38:56.011Z,35.00
2019-02-26T02:41:25.208Z,37.08
2019-02-26T02:43:54.415Z,36.80
2019-02-26T02:46:23.665Z,41.02
2019-02-26T02:48:52.918Z,33.08
2019-02-26T02:51:22.151Z,36.80
2019-02-26T02:53:54.155Z,35.43
2019-02-26T02:56:22.343Z,32.85
2019-02-26T02:58:51.765Z,32.65
2019-02-26T03:01:22.955Z,32.75
2019-02-26T03:03:53.794Z,35.45
2019-02-26T03:06:24.223Z,32.48
2019-02-26T03:08:53.948Z,31.25
2019-02-26T03:11:23.302Z,31.70
2019-02-26T03:13:53.841Z,35.28
2019-02-26T03:16:25.077Z,37.67
2019-02-26T03:18:54.134Z,39.00
2019-02-26T03:21:24.822Z,36.42
2019-02-26T03:23:54.369Z,33.15
2019-02-26T03:26:25.864Z,36.00
2019-02-26T03:28:54.609Z,33.38
2019-02-26T03:31:28.800Z,29.98
2019-02-26T03:34:00.083Z,31.77
2019-02-26T03:36:25.756Z,33.65
2019-02-26T03:38:57.271Z,37.38
2019-02-26T03:41:28.309Z,36.33
2019-02-26T03:43:58.473Z,32.55
2019-02-26T03:46:27.856Z,37.78
2019-02-26T03:48:57.092Z,35.55
2019-02-26T03:51:26.322Z,34.50
2019-02-26T03:53:55.548Z,37.17
2019-02-26T03:56:24.873Z,32.17
2019-02-26T03:58:57.074Z,32.05
2019-02-26T04:01:25.127Z,37.08
2019-02-26T04:03:55.106Z,36.33
2019-02-26T04:06:25.312Z,33.73
2019-02-26T04:08:55.942Z,37.73
2019-02-26T04:11:27.686Z,41.25
2019-02-26T04:13:56.739Z,35.08
2019-02-26T04:16:26.065Z,34.15
2019-02-26T04:18:55.277Z,33.38
2019-02-26T04:21:25.971Z,33.48
2019-02-26T04:23:55.208Z,33.35
2019-02-26T04:27:11.748Z,36.83
2019-02-26T04:30:06.310Z,37.63
2019-02-26T04:33:20.270Z,36.35
2019-02-26T04:36:16.889Z,37.77
2019-02-26T04:39:16.306Z,34.73
2019-02-26T04:41:57.956Z,35.95
2019-02-26T04:45:10.647Z,44.58
2019-02-26T04:47:40.929Z,36.75
2019-02-26T04:50:10.185Z,35.05
2019-02-26T04:52:41.224Z,35.03
2019-02-26T04:55:10.365Z,39.20
2019-02-26T04:57:42.416Z,35.05
2019-02-26T05:00:10.822Z,35.33
2019-02-26T05:02:40.036Z,35.63
2019-02-26T05:05:09.365Z,37.00
2019-02-26T05:07:41.332Z,41.50
2019-02-26T05:10:09.669Z,37.85
2019-02-26T05:12:40.177Z,43.87
2019-02-26T05:15:13.965Z,41.40
2019-02-26T05:17:40.472Z,39.18
2019-02-26T05:20:12.978Z,43.45
2019-02-26T05:22:40.766Z,39.05
2019-02-26T05:25:13.991Z,36.23
2019-02-26T05:27:42.825Z,35.73
2019-02-26T05:30:13.905Z,34.08
2019-02-26T05:32:42.972Z,37.73
2019-02-26T05:35:14.497Z,43.42
2019-02-26T05:37:43.198Z,40.95
2019-02-26T05:40:15.325Z,42.53
2019-02-26T05:42:43.410Z,38.90
2019-02-26T05:45:12.689Z,42.23
2019-02-26T05:47:43.047Z,40.67
2019-02-26T05:50:16.176Z,39.63
2019-02-26T05:52:43.825Z,37.40
2019-02-26T05:55:14.600Z,44.17
2019-02-26T05:57:44.042Z,42.90
2019-02-26T06:00:18.234Z,44.48
2019-02-26T06:02:48.537Z,39.75
2019-02-26T06:05:18.377Z,43.80
2019-02-26T06:07:47.569Z,41.55
2019-02-26T06:10:18.889Z,39.70
2019-02-26T06:12:47.831Z,42.38
2019-02-26T06:15:17.054Z,40.33
2019-02-26T06:17:48.120Z,44.50
2019-02-26T06:20:19.681Z,45.55
2019-02-26T06:22:48.915Z,46.77
2019-02-26T06:25:23.651Z,48.07
2019-02-26T06:27:49.130Z,41.68
2019-02-26T06:30:18.527Z,45.55
2019-02-26T06:32:47.794Z,44.35
2019-02-26T06:35:19.397Z,47.90
2019-02-26T06:37:48.146Z,47.85
2019-02-26T06:40:17.435Z,43.08
2019-02-26T06:42:46.702Z,40.80
2019-02-26T06:45:16.797Z,42.63
2019-02-26T06:47:48.606Z,46.55
2019-02-26T06:50:18.815Z,45.20
2019-02-26T06:52:50.578Z,50.63
2019-02-26T06:55:19.308Z,47.62
2019-02-26T06:57:50.914Z,45.48
2019-02-26T07:00:23.849Z,43.53
2019-02-26T07:02:50.526Z,48.10
2019-02-26T07:05:23.863Z,43.40
2019-02-26T07:07:54.175Z,47.45
2019-02-26T07:10:26.014Z,43.43
2019-02-26T07:12:52.655Z,44.50
2019-02-26T07:15:21.894Z,43.30
2019-02-26T07:17:51.140Z,50.20
2019-02-26T07:20:20.367Z,45.45
2019-02-26T07:22:51.632Z,49.42
2019-02-26T07:25:20.623Z,47.53
2019-02-26T07:27:51.384Z,46.58
2019-02-26T07:30:20.871Z,48.67
2019-02-26T07:32:50.145Z,43.25
2019-02-26T07:35:19.401Z,48.68
2019-02-26T07:37:48.720Z,45.67
2019-02-26T07:40:18.706Z,47.13
2019-02-26T07:42:49.225Z,50.33
2019-02-26T07:45:21.907Z,45.57
2019-02-26T07:47:51.458Z,51.42
2019-02-26T07:50:20.632Z,43.50
2019-02-26T07:52:52.040Z,42.38
2019-02-26T07:55:20.853Z,39.57
2019-02-26T07:57:51.232Z,37.00
2019-02-26T08:00:22.299Z,37.33
2019-02-26T08:02:54.015Z,35.55
2019-02-26T08:05:25.724Z,40.70
2019-02-26T08:07:56.689Z,37.93
2019-02-26T08:10:25.912Z,35.77
2019-02-26T08:12:56.625Z,36.55
2019-02-26T08:15:27.988Z,38.17
2019-02-26T08:17:58.449Z,36.15
2019-02-26T08:20:30.222Z,35.60
2019-02-26T08:23:01.315Z,35.50
2019-02-26T08:25:30.344Z,31.20
2019-02-26T08:28:01.324Z,32.65
2019-02-26T08:30:30.663Z,34.88
2019-02-26T08:33:04.162Z,33.70
2019-02-26T08:35:30.909Z,37.85
2019-02-26T08:38:00.178Z,39.05
2019-02-26T08:40:29.460Z,33.47
2019-02-26T08:42:58.687Z,38.60
2019-02-26T08:45:28.138Z,36.90
2019-02-26T08:47:57.365Z,38.13
2019-02-26T08:50:30.688Z,38.95
2019-02-26T08:52:58.465Z,35.35
2019-02-26T08:55:27.854Z,35.95
2019-02-26T08:57:57.118Z,38.85
2019-02-26T09:00:26.390Z,34.33
2019-02-26T09:02:56.649Z,35.60
2019-02-26T09:05:29.242Z,36.70
2019-02-26T09:07:57.505Z,31.75
2019-02-26T09:10:26.774Z,34.83
2019-02-26T09:12:56.015Z,35.85
2019-02-26T09:15:25.301Z,34.95
2019-02-26T09:17:54.607Z,37.93
2019-02-26T09:20:23.873Z,36.33
2019-02-26T09:22:54.579Z,37.30
2019-02-26T09:25:26.117Z,39.10
2019-02-26T09:27:55.086Z,33.78
2019-02-26T09:30:24.357Z,33.20
2019-02-26T09:32:53.648Z,38.65
2019-02-26T09:35:26.887Z,33.77
2019-02-26T09:37:56.383Z,35.98
2019-02-26T09:40:26.609Z,28.93
2019-02-26T09:42:58.143Z,38.50
2019-02-26T09:45:30.012Z,32.63
2019-02-26T09:47:58.316Z,33.02
2019-02-26T09:50:27.590Z,31.25
2019-02-26T09:52:59.157Z,31.65
2019-02-26T09:55:29.614Z,33.58
2019-02-26T09:57:58.871Z,34.65
2019-02-26T10:00:29.525Z,38.75
2019-02-26T10:02:58.983Z,35.05
2019-02-26T10:05:28.253Z,36.38
2019-02-26T10:07:59.999Z,34.38
2019-02-26T10:10:31.092Z,36.77
2019-02-26T10:13:02.042Z,37.95
2019-02-26T10:15:32.359Z,35.30
2019-02-26T10:18:04.025Z,42.25
2019-02-26T10:20:32.935Z,35.07
2019-02-26T10:23:04.251Z,41.08
2019-02-26T10:25:34.944Z,37.03
2019-02-26T10:28:08.740Z,35.98
2019-02-26T10:30:38.291Z,42.70
2019-02-26T10:33:08.351Z,38.45
2019-02-26T10:35:39.692Z,38.57
2019-02-26T10:38:11.520Z,41.20
2019-02-26T10:40:50.626Z,39.38
2019-02-26T10:43:10.545Z,39.53
2019-02-26T10:45:42.451Z,40.10
2019-02-26T10:48:10.833Z,37.50
2019-02-26T10:50:42.521Z,29.70
2019-02-26T10:53:13.785Z,35.03
2019-02-26T10:55:42.310Z,40.05
2019-02-26T10:58:13.209Z,37.00
2019-02-26T11:00:43.242Z,39.55
2019-02-26T11:03:14.854Z,35.00
2019-02-26T11:05:45.222Z,32.87
2019-02-26T11:08:14.525Z,34.35
2019-02-26T11:10:44.905Z,33.95
2019-02-26T11:13:15.880Z,27.60
2019-02-26T11:15:48.250Z,25.82
2019-02-26T11:18:18.042Z,24.67
2019-02-26T11:20:50.156Z,24.25
2019-02-26T11:23:18.781Z,20.62
2019-02-26T11:25:48.024Z,23.35
2019-02-26T11:28:17.270Z,22.07
2019-02-26T11:30:49.039Z,29.30
2019-02-26T11:33:17.588Z,27.60
2019-02-26T11:35:48.905Z,29.18
2019-02-26T11:38:19.510Z,34.08
2019-02-26T11:40:48.782Z,34.98
2019-02-26T11:43:22.563Z,34.43
2019-02-26T11:45:49.131Z,32.38
2019-02-26T11:48:20.658Z,25.75
2019-02-26T11:50:49.402Z,30.48
2019-02-26T11:53:18.814Z,28.98
2019-02-26T11:55:51.378Z,28.40
2019-02-26T11:58:21.814Z,30.50
2019-02-26T12:00:52.634Z,27.82
2019-02-26T12:03:24.894Z,25.57
2019-02-26T12:05:54.200Z,26.42
2019-02-26T12:08:25.749Z,22.48
2019-02-26T12:10:58.010Z,27.48
2019-02-26T12:13:27.720Z,26.20
2019-02-26T12:15:57.074Z,25.75
2019-02-26T12:18:26.318Z,24.05
2019-02-26T12:20:55.568Z,19.48
2019-02-26T12:23:24.786Z,17.05
2019-02-26T12:25:55.512Z,16.27
2019-02-26T12:28:26.049Z,16.50
2019-02-26T12:30:58.398Z,16.15
2019-02-26T12:33:27.070Z,13.62
2019-02-26T12:35:59.000Z,18.00
2019-02-26T12:38:27.264Z,20.75
2019-02-26T12:40:56.568Z,14.58
2019-02-26T12:43:25.829Z,14.15
2019-02-26T12:45:56.606Z,14.78
2019-02-26T12:48:26.077Z,14.70
2019-02-26T12:50:57.763Z,14.63
2019-02-26T12:53:26.321Z,12.47
2019-02-26T12:55:56.635Z,13.55
2019-02-26T12:58:27.879Z,15.20
2019-02-26T13:00:57.315Z,13.72
2019-02-26T13:03:26.517Z,14.55
2019-02-26T13:05:55.773Z,18.42
2019-02-26T13:08:25.159Z,17.92
2019-02-26T13:10:57.779Z,17.17
2019-02-26T13:13:25.450Z,19.57
2019-02-26T13:15:54.724Z,16.80
2019-02-26T13:18:23.961Z,16.75
2019-02-26T13:20:59.469Z,17.90
2019-02-26T13:23:24.165Z,19.27
2019-02-26T13:25:53.457Z,17.12
2019-02-26T13:28:29.276Z,17.75
2019-02-26T13:30:53.725Z,19.85
2019-02-26T13:33:27.506Z,16.65
2019-02-26T13:36:00.422Z,18.73
2019-02-26T13:38:34.003Z,13.85
2019-02-26T13:41:19.914Z,14.05
2019-02-26T13:43:28.625Z,15.50
2019-02-26T13:45:57.971Z,18.92
2019-02-26T13:48:27.276Z,16.90
2019-02-26T13:50:56.741Z,14.53
2019-02-26T13:53:26.022Z,13.88
2019-02-26T13:55:55.249Z,12.53
2019-02-26T13:58:24.571Z,12.47
2019-02-26T14:00:53.813Z,14.10
2019-02-26T14:03:23.170Z,12.15
2019-02-26T14:05:52.407Z,11.68
2019-02-26T14:08:21.684Z,11.60
2019-02-26T14:10:50.974Z,13.88
2019-02-26T14:13:20.429Z,11.08
2019-02-26T14:15:49.719Z,12.80
2019-02-26T14:18:19.043Z,11.53
2019-02-26T14:20:48.282Z,12.80
2019-02-26T14:23:17.637Z,12.65
2019-02-26T14:25:46.963Z,11.85
2019-02-26T14:28:16.220Z,14.07
2019-02-26T14:30:45.528Z,12.93
2019-02-26T14:33:14.918Z,11.68
2019-02-26T14:35:44.173Z,11.12
2019-02-26T14:38:13.481Z,13.08
2019-02-26T14:40:42.762Z,10.98
2019-02-26T14:46:49.586Z,10.93
2019-02-26T14:49:19.076Z,9.18
2019-02-26T14:51:48.335Z,11.05
2019-02-26T14:54:17.747Z,11.45
2019-02-26T14:56:47.045Z,10.50
2019-02-26T14:59:16.389Z,8.85
2019-02-26T15:01:45.728Z,8.75
2019-02-26T15:04:14.939Z,9.55
2019-02-26T15:06:44.292Z,10.18
2019-02-26T15:09:13.524Z,9.85
2019-02-26T15:11:42.808Z,6.78
2019-02-26T15:14:12.108Z,8.90
2019-02-26T15:16:41.345Z,6.95
2019-02-26T15:19:10.602Z,6.00
2019-02-26T15:21:39.942Z,6.03
2019-02-26T15:24:09.432Z,8.50
2019-02-26T15:26:38.737Z,8.05
2019-02-26T15:29:07.987Z,7.62
2019-02-26T15:31:37.317Z,7.35
2019-02-26T15:34:06.616Z,6.47
2019-02-26T15:36:36.089Z,5.72
2019-02-26T15:39:06.471Z,4.95
2019-02-26T15:41:35.746Z,5.28
2019-02-26T15:44:05.070Z,6.42
2019-02-26T15:46:37.783Z,6.05
2019-02-26T15:51:37.065Z,7.33
2019-02-26T15:54:06.297Z,8.78
2019-02-26T15:56:35.649Z,6.03
2019-02-26T15:59:05.307Z,5.22
2019-02-26T16:01:34.584Z,5.85
2019-02-26T16:04:03.880Z,9.13
2019-02-26T16:06:33.178Z,5.00
2019-02-26T16:09:02.497Z,6.92
2019-02-26T16:11:31.844Z,5.30
2019-02-26T16:14:01.216Z,5.47
2019-02-26T16:16:30.508Z,5.87
2019-02-26T16:19:00.731Z,5.05
2019-02-26T16:21:30.500Z,7.47
2019-02-26T16:23:59.822Z,6.50
2019-02-26T16:26:29.102Z,6.05
2019-02-26T16:29:00.918Z,6.53
2019-02-26T16:31:29.937Z,5.85
2019-02-26T16:33:59.938Z,7.80
2019-02-26T16:36:31.724Z,5.45
2019-02-26T16:39:00.178Z,5.67
2019-02-26T16:41:29.456Z,9.25
2019-02-26T16:43:58.738Z,8.63
2019-02-26T16:46:28.059Z,9.75
2019-02-26T16:48:57.330Z,8.63
2019-02-26T16:51:26.656Z,8.03
2019-02-26T16:53:55.967Z,7.60
2019-02-26T16:56:25.223Z,8.18
2019-02-26T16:58:54.710Z,12.05
2019-02-26T17:01:24.097Z,8.73
2019-02-26T17:03:53.386Z,7.53
2019-02-26T17:06:22.701Z,7.57
2019-02-26T17:08:51.970Z,10.70
2019-02-26T17:11:21.446Z,9.73
2019-02-26T17:13:50.691Z,13.60
2019-02-26T17:16:20.146Z,11.45
2019-02-26T17:18:49.535Z,7.87
2019-02-26T17:21:18.834Z,12.07
2019-02-26T17:23:48.271Z,13.32
2019-02-26T17:26:17.570Z,12.95
2019-02-26T17:28:46.920Z,9.43
2019-02-26T17:31:16.276Z,11.22
2019-02-26T17:33:46.729Z,10.65
2019-02-26T17:36:16.486Z,13.78
2019-02-26T17:38:45.737Z,12.43
2019-02-26T17:41:15.025Z,10.13
2019-02-26T17:43:44.290Z,15.78
2019-02-26T17:46:13.541Z,18.25
2019-02-26T17:48:43.708Z,15.15
2019-02-26T17:51:13.157Z,18.23
2019-02-26T17:53:42.409Z,17.12
2019-02-26T17:56:11.795Z,18.35
2019-02-26T17:58:41.720Z,13.98
2019-02-26T18:01:12.096Z,12.07
2019-02-26T18:03:44.576Z,11.53
2019-02-26T18:06:13.162Z,14.70
2019-02-26T18:08:42.452Z,11.97
2019-02-26T18:11:11.730Z,12.60
2019-02-26T18:13:41.079Z,10.58
2019-02-26T18:16:10.335Z,12.82
2019-02-26T18:18:42.746Z,13.00
2019-02-26T18:23:40.384Z,13.55
2019-02-26T18:26:09.669Z,16.40
2019-02-26T18:28:38.973Z,12.45
2019-02-26T18:31:08.350Z,15.60
2019-02-26T18:33:37.939Z,24.27
2019-02-26T18:36:07.208Z,20.43
2019-02-26T18:38:36.490Z,17.37
2019-02-26T18:41:05.808Z,18.23
2019-02-26T18:43:35.073Z,15.20
2019-02-26T18:46:04.403Z,16.70
2019-02-26T18:48:33.684Z,14.35
2019-02-26T18:51:03.056Z,12.18
2019-02-26T18:53:32.341Z,12.50
2019-02-26T18:56:03.995Z,16.07
2019-02-26T18:58:32.665Z,17.30
2019-02-26T19:01:01.922Z,18.05
2019-02-26T19:03:31.201Z,19.37
2019-02-26T19:06:03.659Z,19.60
2019-02-26T19:08:34.625Z,20.88
2019-02-26T19:11:04.221Z,20.85
2019-02-26T19:13:35.621Z,19.45
2019-02-26T19:16:04.750Z,21.30
2019-02-26T19:18:35.756Z,20.88
2019-02-26T19:21:05.301Z,23.10
2019-02-26T19:23:34.607Z,20.43
2019-02-26T19:26:03.945Z,27.50
2019-02-26T19:28:37.665Z,26.27
2019-02-26T19:31:09.343Z,24.10
2019-02-26T19:33:38.227Z,25.37
2019-02-26T19:36:07.641Z,22.07
2019-02-26T19:38:36.986Z,24.50
2019-02-26T19:41:12.375Z,24.63
2019-02-26T19:43:40.324Z,24.70
2019-02-26T19:46:10.596Z,30.12
2019-02-26T19:48:40.305Z,24.90
2019-02-26T19:51:09.658Z,24.10
2019-02-26T19:53:38.955Z,27.17
2019-02-26T19:56:08.290Z,25.05
2019-02-26T19:58:40.620Z,23.32
2019-02-26T20:01:08.698Z,18.85
2019-02-26T20:03:40.212Z,22.87
2019-02-26T20:06:09.345Z,23.25
2019-02-26T20:08:38.755Z,25.48
2019-02-26T20:11:08.136Z,27.45
2019-02-26T20:13:42.079Z,28.00
2019-02-26T20:16:08.623Z,26.80
2019-02-26T20:18:37.977Z,28.50
2019-02-26T20:21:07.319Z,32.70
2019-02-26T20:23:36.691Z,32.55
2019-02-26T20:26:06.464Z,35.63
2019-02-26T20:28:35.999Z,35.83
2019-02-26T20:31:05.384Z,37.78
2019-02-26T20:33:34.778Z,38.73
2019-02-26T20:36:04.096Z,39.80
2019-02-26T20:38:35.293Z,34.80
2019-02-26T20:41:04.575Z,41.13
2019-02-26T20:43:36.389Z,38.98
2019-02-26T20:46:04.915Z,36.83
2019-02-26T20:48:36.552Z,35.43
2019-02-26T20:51:05.394Z,35.80
2019-02-26T20:53:36.634Z,37.38
2019-02-26T20:56:05.914Z,35.83
2019-02-26T20:58:35.349Z,34.90
2019-02-26T21:01:04.642Z,38.90
2019-02-26T21:03:34.005Z,36.68
2019-02-26T21:06:03.592Z,36.25
2019-02-26T21:08:32.942Z,37.23
2019-02-26T21:11:02.329Z,41.73
2019-02-26T21:13:34.651Z,39.85
2019-02-26T21:16:02.799Z,28.30
2019-02-26T21:18:32.105Z,38.70
2019-02-26T21:21:01.514Z,41.63
2019-02-26T21:23:32.516Z,44.30
2019-02-26T21:26:01.967Z,42.50
2019-02-26T21:28:33.308Z,42.90
2019-02-26T21:31:02.353Z,40.90
2019-02-26T21:33:31.711Z,40.75
2019-02-26T21:36:01.031Z,47.43
2019-02-26T21:38:30.327Z,45.35
2019-02-26T21:40:59.682Z,49.23
2019-02-26T21:43:28.997Z,60.38
2019-02-26T21:45:58.432Z,58.42
2019-02-26T21:48:27.677Z,48.08
2019-02-26T21:50:57.002Z,47.90
2019-02-26T21:53:26.277Z,46.05
2019-02-26T21:55:55.774Z,46.45
2019-02-26T21:58:26.834Z,47.88
2019-02-26T22:00:56.134Z,49.45
2019-02-26T22:03:25.407Z,47.00
2019-02-26T22:05:54.807Z,45.30
2019-02-26T22:08:24.718Z,51.30
2019-02-26T22:10:54.617Z,56.70
2019-02-26T22:13:23.967Z,43.85
2019-02-26T22:15:53.275Z,40.35
2019-02-26T22:18:22.599Z,40.38
2019-02-26T22:20:51.996Z,37.93
2019-02-26T22:23:21.382Z,36.55
2019-02-26T22:25:52.533Z,31.20
2019-02-26T22:28:23.079Z,30.57
2019-02-26T22:30:55.713Z,31.90
2019-02-26T22:33:23.549Z,32.53
2019-02-26T22:35:52.871Z,34.43
2019-02-26T22:38:22.282Z,32.25
2019-02-26T22:40:51.543Z,34.67
2019-02-26T22:43:20.975Z,30.45
2019-02-26T22:45:50.215Z,32.00
2019-02-26T22:48:19.556Z,26.20
2019-02-26T22:50:48.807Z,29.45
2019-02-26T22:53:18.076Z,26.20
2019-02-26T22:55:49.592Z,29.10
2019-02-26T22:58:18.354Z,25.90
2019-02-26T23:01:30.329Z,29.30
2019-02-26T23:03:53.530Z,24.70
2019-02-26T23:06:22.783Z,25.65
2019-02-26T23:08:52.200Z,27.90
2019-02-26T23:11:21.896Z,27.53
2019-02-26T23:13:51.227Z,27.60
2019-02-26T23:16:20.512Z,28.30
2019-02-26T23:18:49.809Z,28.20
2019-02-26T23:21:19.416Z,28.30
2019-02-26T23:23:48.874Z,27.90
2019-02-26T23:26:18.169Z,28.38
2019-02-26T23:28:47.430Z,27.65
2019-02-26T23:31:17.586Z,25.77
2019-02-26T23:33:48.587Z,26.52
2019-02-26T23:36:17.959Z,27.93
2019-02-26T23:38:47.948Z,26.57
2019-02-26T23:41:17.216Z,25.82
2019-02-26T23:43:46.490Z,30.10
2019-02-26T23:46:15.759Z,26.70
2019-02-26T23:48:45.019Z,29.77
2019-02-26T23:51:14.318Z,27.10
2019-02-26T23:53:43.555Z,27.60
2019-02-26T23:56:12.888Z,27.45
2019-02-26T23:58:42.153Z,27.45
